EFTU

Turku Airport

Turku, Finland
METAR EFTU 181320Z AUTO VRB01KT CAVOK M06/M08 Q0997
Observed Flight Rules
Jan-18 @ 13:20 UTC (28 minutes ago) Visual Flight Rules
Wind Visibility Clouds
Variable at 1 knots 10,000+ meters
  • Clear skies
Temperatures Readings
Current -6°C / 21°F
Dewpoint -8°C / 18°F
Humidity 86%
Altimeter 29.44" Hg
Pressure 996.92 hPa
Elevation 59
METAR EFTU 181320Z AUTO VRB01KT CAVOK M06/M08 Q0997
Observed Flight Rules
Jan-18 @ 13:20 UTC
(28 minutes ago)
VFR
Wind Visibility
Variable at 1 knots 10,000+ meters
Clouds
  • Clear skies
Temperature Dewpoint
-6°C / 21°F -8°C / 18°F
Humidity Altimeter Pressure
86% 29.44" Hg 996.92 hPa